Latest Weather Observations for Hobart Airport

IDT60901

Issued at 12:11 pm EST Sunday 2 August 2015 (issued every 10 minutes, with the page automatically refreshed every 10 minutes)

About weather observations | Map of Hobart area stations | Latest observations for Hobart area | Other Formats
Station Details ID: 094008 Name: HOBART AIRPORT Lat: -42.83 Lon: 147.50 Height: 4.0 m
Data from the previous 72 hours. | See also: Recent months at Hobart Airport
Date/Time
EST
Tmp

°C
App
Tmp
°C
Dew
Point
°C
Rel
Hum
%
Delta-T

°C
Wind Press
QNH
hPa
Press
MSL
hPa
Rain
since
9 am
mm
Dir
 
Spd
km/h
Gust
km/h
Spd
kts
Gust
kts
02/12:00pm 12.8 5.3 -1.2 38 5.7 NNW 28 41 15 22 993.2 993.3 0.0
02/11:30am 12.1 3.4 -0.2 42 5.0 NNW 35 52 19 28 993.9 994.0 0.0
02/11:00am 12.6 4.0 -0.1 41 5.3 NNW 35 56 19 30 994.5 994.6 0.0
02/10:46am 12.3 4.2 -0.6 41 5.2 NNW 32 50 17 27 994.9 995.0 0.0
02/10:30am 11.4 3.5 1.0 49 4.3 NNW 32 44 17 24 995.1 995.2 0.0
02/10:00am 10.5 1.9 0.3 49 4.2 N 35 56 19 30 995.9 996.0 0.0
02/09:30am 9.4 1.2 0.6 54 3.6 N 33 50 18 27 996.5 996.6 0.0
02/09:00am 8.8 -1.0 -0.2 53 3.6 N 41 57 22 31 997.0 997.1 0.0
02/08:30am 7.8 -0.3 -0.3 56 3.2 NNW 32 52 17 28 997.9 997.9 0.0
02/08:00am 6.9 -1.2 -0.3 60 2.8 NNW 32 50 17 27 998.2 998.2 0.0
02/07:53am 6.9 -0.9 -0.6 59 2.9 NNW 30 48 16 26 998.3 998.3 0.0
02/07:30am 6.4 -0.6 -0.6 61 2.7 NNW 26 39 14 21 998.7 998.7 0.0
02/07:00am 6.5 -0.9 -0.5 61 2.7 NNW 28 50 15 27 999.1 999.1 0.0
02/06:56am 6.4 -0.9 -0.3 62 2.6 NNW 28 50 15 27 999.1 999.1 0.0
02/06:30am 6.4 -1.0 -0.6 61 2.7 NNW 28 37 15 20 999.3 999.3 0.0
02/06:16am 6.5 -0.9 -0.8 59 2.8 N 28 46 15 25 999.4 999.4 0.0
02/06:00am 6.3 -0.4 -1.1 59 2.8 N 24 37 13 20 999.7 999.7 0.0
02/05:30am 7.4 0.3 -1.6 53 3.4 N 26 52 14 28 1000.4 1000.4 0.0
02/05:00am 7.2 1.2 -1.8 53 3.4 N 20 33 11 18 1000.8 1000.8 0.0
02/04:30am 8.3 0.4 -1.6 49 3.8 NNW 30 43 16 23 1001.2 1001.2 0.0
02/04:02am 8.3 0.9 -1.0 52 3.6 NNW 28 48 15 26 1001.9 1001.9 0.0
02/04:00am 8.4 0.9 -1.2 51 3.7 NNW 28 44 15 24 1001.9 1001.9 0.0
02/03:41am 8.2 0.7 -1.1 52 3.6 NNW 28 46 15 25 1002.0 1002.0 0.0
02/03:30am 7.8 0.7 -1.0 54 3.4 NNW 26 44 14 24 1002.2 1002.2 0.0
02/03:19am 8.0 0.2 -1.1 52 3.5 NNW 30 48 16 26 1002.3 1002.3 0.0
02/03:00am 8.1 1.0 -1.6 50 3.7 NNW 26 39 14 21 1002.5 1002.5 0.0
02/02:53am 8.0 0.5 -1.4 51 3.6 NNW 28 46 15 25 1002.7 1002.7 0.0
02/02:30am 7.5 0.8 -1.1 54 3.3 NNW 24 35 13 19 1003.3 1003.3 0.0
02/02:00am 7.9 0.4 -1.2 52 3.5 NNW 28 39 15 21 1003.4 1003.4 0.0
02/01:30am 8.0 -0.3 -1.4 51 3.6 NNW 32 46 17 25 1003.5 1003.5 0.0
02/01:00am 7.8 0.3 -1.4 52 3.5 NNW 28 43 15 23 1003.9 1003.9 0.0
02/12:30am 7.5 0.4 -1.1 54 3.3 NNW 26 37 14 20 1004.4 1004.4 0.0
02/12:00am 7.4 1.1 -1.3 54 3.3 NNW 22 39 12 21 1004.7 1004.7 0.0
 
Date/Time
EST
Tmp

°C
App
Tmp
°C
Dew
Point
°C
Rel
Hum
%
Delta-T

°C
Wind Press
QNH
hPa
Press
MSL
hPa
Rain
since
9 am
mm
Dir
 
Spd
km/h
Gust
km/h
Spd
kts
Gust
kts
01/11:30pm 7.0 1.1 -1.1 56 3.1 NNW 20 37 11 20 1005.1 1005.1 0.0
01/11:00pm 7.0 0.6 -1.5 54 3.2 NNW 22 33 12 18 1005.5 1005.5 0.0
01/10:30pm 6.8 0.4 -1.8 54 3.2 NNW 22 32 12 17 1005.8 1005.8 0.0
01/10:00pm 7.3 0.1 -1.7 53 3.4 NW 26 35 14 19 1006.1 1006.1 0.0
01/09:30pm 6.6 0.6 -1.4 56 3.0 NNW 20 35 11 19 1006.3 1006.3 0.0
01/09:00pm 7.2 0.1 -1.5 54 3.3 NNW 26 37 14 20 1006.4 1006.4 0.0
01/08:30pm 6.4 0.4 -1.3 58 2.9 NNW 20 32 11 17 1006.7 1006.7 0.0
01/08:00pm 6.6 0.5 -2.4 52 3.3 NNW 20 32 11 17 1006.8 1006.8 0.0
01/07:30pm 6.6 0.6 -1.7 55 3.1 N 20 30 11 16 1006.8 1006.8 0.0
01/07:00pm 7.4 1.3 -2.3 50 3.6 N 20 30 11 16 1006.7 1006.7 0.0
01/06:30pm 7.0 1.0 -1.8 53 3.3 N 20 30 11 16 1006.3 1006.3 0.0
01/06:00pm 7.3 1.2 -2.1 51 3.5 N 20 28 11 15 1005.9 1005.9 0.0
01/05:30pm 7.0 2.0 -1.1 56 3.1 NNW 15 26 8 14 1005.6 1005.6 0.0
01/05:00pm 8.0 -0.1 -3.2 45 4.1 WNW 30 39 16 21 1004.8 1004.8 0.0
01/04:30pm 8.3 -0.8 -3.5 43 4.3 WNW 35 46 19 25 1004.6 1004.6 0.0
01/04:04pm 8.7 -0.7 -3.2 43 4.4 WNW 37 56 20 30 1004.8 1004.8 0.0
01/04:00pm 8.8 -0.6 -3.1 43 4.4 WNW 37 52 20 28 1004.8 1004.8 0.0
01/03:30pm 9.4 -0.1 -3.6 40 4.8 WNW 37 48 20 26 1004.4 1004.4 0.0
01/03:03pm 9.5 0.8 -3.5 40 4.8 WNW 33 52 18 28 1004.1 1004.1 0.0
01/03:00pm 9.6 1.1 -3.3 40 4.8 WNW 32 43 17 23 1004.1 1004.1 0.0
01/02:30pm 9.1 0.2 -2.2 45 4.3 WNW 35 44 19 24 1003.8 1003.8 0.0
01/02:07pm 8.7 -0.6 -1.8 47 4.0 WNW 37 56 20 30 1003.9 1003.9 0.0
01/02:00pm 8.5 -0.7 -1.4 50 3.8 WNW 37 48 20 26 1003.9 1003.9 0.0
01/01:30pm 7.0 -2.5 1.9 70 2.1 W 41 52 22 28 1004.3 1004.3 0.0
01/01:02pm 10.4 1.4 -2.7 40 5.0 WNW 35 54 19 29 1003.7 1003.7 0.0
01/01:00pm 10.4 1.7 -3.1 38 5.1 WNW 33 46 18 25 1003.7 1003.7 0.0
01/12:39pm 9.7 1.0 -3.1 40 4.8 WNW 33 52 18 28 1003.1 1003.1 0.0
01/12:30pm 10.0 1.3 -3.8 37 5.1 W 33 48 18 26 1003.1 1003.1 0.0
01/12:03pm 9.9 1.4 -3.2 39 4.9 W 32 54 17 29 1002.9 1002.9 0.0
01/12:00pm 10.1 1.7 -2.5 41 4.8 W 32 41 17 22 1003.0 1003.0 0.0
01/11:30am 9.3 0.8 -3.0 42 4.6 WNW 32 44 17 24 1002.8 1002.8 0.0
01/11:10am 9.1 0.5 -2.6 43 4.4 W 33 57 18 31 1002.9 1002.9 0.0
01/11:00am 8.5 0.1 -2.4 46 4.1 WNW 32 44 17 24 1003.0 1003.0 0.0
01/10:30am 7.7 -1.0 -0.8 55 3.3 WNW 35 48 19 26 1002.9 1002.9 0.0
01/10:06am 7.6 -2.0 -1.3 53 3.4 W 39 57 21 31 1002.5 1002.5 0.0
01/10:00am 7.6 -2.4 -1.6 52 3.5 W 41 57 22 31 1002.2 1002.2 0.0
01/09:44am 7.8 -0.8 -2.4 48 3.8 W 33 56 18 30 1001.9 1001.9 0.0
01/09:30am 7.9 0.4 -1.2 52 3.5 WNW 28 39 15 21 1001.6 1001.6 0.0
01/09:00am 7.8 -0.9 -0.7 55 3.3 NW 35 46 19 25 1001.0 1001.0 0.6
01/08:49am 7.1 -0.7 -1.0 56 3.1 NW 30 48 16 26 1000.7 1000.7 0.6
01/08:30am 7.5 0.1 -0.4 57 3.1 WNW 28 39 15 21 1000.3 1000.3 0.6
01/08:19am 7.4 0.2 1.0 64 2.6 WNW 28 46 15 25 1000.5 1000.5 0.6
01/08:00am 7.9 1.7 1.9 66 2.5 WNW 24 33 13 18 999.8 999.8 0.6
01/07:30am 7.5 2.0 1.9 67 2.3 NW 20 28 11 15 998.9 998.9 0.6
01/07:00am 7.4 1.3 2.9 73 1.9 NW 24 32 13 17 997.8 997.8 0.6
01/06:30am 8.1 0.0 3.2 71 2.1 NW 35 44 19 24 997.9 997.9 0.6
01/06:00am 8.5 1.9 4.2 74 1.9 NW 28 37 15 20 997.4 997.4 0.4
01/05:30am 9.0 3.8 3.8 70 2.3 NNW 20 28 11 15 997.1 997.2 0.4
01/05:00am 8.9 3.0 3.9 71 2.2 NNW 24 33 13 18 996.5 996.6 0.2
01/04:30am 9.6 2.0 2.6 61 3.0 NNW 32 48 17 26 996.0 996.1 0.2
01/04:05am 9.6 1.7 2.1 59 3.2 NNW 33 52 18 28 996.0 996.1 0.2
01/04:00am 9.4 1.5 2.1 60 3.1 NNW 33 48 18 26 996.2 996.3 0.2
01/03:30am 9.4 1.6 1.8 59 3.2 N 32 50 17 27 996.2 996.3 0.2
01/03:00am 9.6 2.1 1.5 57 3.4 N 30 43 16 23 997.0 997.1 0.2
01/02:30am 10.3 2.6 0.0 49 4.2 NNW 30 48 16 26 998.1 998.1 0.2
01/02:09am 10.2 2.9 -0.2 48 4.2 NNW 28 48 15 26 998.6 998.6 0.2
01/02:00am 10.1 3.2 0.0 49 4.1 N 26 41 14 22 998.7 998.7 0.2
01/01:30am 9.4 1.0 1.8 59 3.2 N 35 52 19 28 999.8 999.8 0.2
01/01:23am 9.3 1.5 1.7 59 3.2 N 32 50 17 27 999.7 999.7 0.2
01/01:00am 9.1 2.9 2.0 61 3.0 N 24 33 13 18 999.4 999.4 0.2
01/12:30am 9.2 3.0 2.4 62 2.9 NNE 24 33 13 18 1000.6 1000.6 0.2
01/12:00am 9.2 3.8 2.4 62 2.9 N 20 30 11 16 1002.5 1002.5 0.2
 
Date/Time
EST
Tmp

°C
App
Tmp
°C
Dew
Point
°C
Rel
Hum
%
Delta-T

°C
Wind Press
QNH
hPa
Press
MSL
hPa
Rain
since
9 am
mm
Dir
 
Spd
km/h
Gust
km/h
Spd
kts
Gust
kts
31/11:30pm 9.3 3.8 1.6 58 3.2 N 20 32 11 17 1003.4 1003.4 0.2
31/11:00pm 7.9 5.5 2.1 67 2.4 N 4 11 2 6 1004.0 1004.0 0.2
31/10:30pm 8.3 3.6 1.2 61 2.9 NNE 15 20 8 11 1004.6 1004.6 0.2
31/10:00pm 8.4 3.4 1.6 62 2.8 N 17 24 9 13 1005.4 1005.4 0.2
31/09:30pm 8.2 3.7 2.2 66 2.5 N 15 20 8 11 1006.4 1006.4 0.2
31/09:00pm 8.3 3.4 2.1 65 2.6 N 17 26 9 14 1006.9 1006.9 0.2
31/08:30pm 7.8 1.9 1.7 65 2.5 N 22 32 12 17 1007.5 1007.5 0.2
31/08:00pm 7.4 1.9 2.1 69 2.2 N 20 33 11 18 1007.7 1007.7 0.2
31/07:30pm 8.5 2.9 0.9 59 3.1 N 20 30 11 16 1008.2 1008.2 0.2
31/07:00pm 8.2 2.8 1.4 62 2.8 N 19 28 10 15 1008.5 1008.5 0.2
31/06:30pm 8.2 3.2 1.6 63 2.7 NNW 17 33 9 18 1009.1 1009.1 0.2
31/06:00pm 6.8 3.3 1.3 68 2.2 N 9 13 5 7 1009.0 1009.0 0.2
31/05:30pm 8.4 4.9 1.3 61 2.9 N 9 13 5 7 1009.0 1009.0 0.2
31/05:00pm 10.0 5.6 0.1 50 4.0 NNW 13 19 7 10 1008.9 1008.9 0.2
31/04:30pm 10.9 5.6 -0.5 45 4.6 NW 17 24 9 13 1009.1 1009.1 0.2
31/04:00pm 11.4 5.1 -0.8 43 4.9 NW 22 32 12 17 1009.5 1009.5 0.2
31/03:30pm 12.0 5.2 -1.6 39 5.4 NW 24 32 13 17 1010.1 1010.1 0.2
31/03:00pm 11.8 4.6 -2.3 37 5.5 NNW 26 41 14 22 1010.3 1010.3 0.2
31/02:30pm 11.0 5.1 -1.1 43 4.8 NW 20 30 11 16 1010.6 1010.6 0.2
31/02:00pm 11.3 4.5 -1.7 40 5.1 NNW 24 33 13 18 1010.8 1010.8 0.2
31/01:30pm 11.8 5.1 -0.9 41 5.1 NW 24 33 13 18 1011.7 1011.7 0.2
31/01:00pm 10.3 2.8 -1.1 45 4.5 NW 28 37 15 20 1012.0 1012.0 0.2
31/12:30pm 10.3 3.6 -1.2 44 4.5 NNW 24 39 13 21 1012.7 1012.7 0.2
31/12:00pm 9.8 4.5 -0.5 48 4.1 NNW 17 26 9 14 1013.0 1013.0 0.2
31/11:30am 9.6 3.6 -1.2 47 4.2 NNW 20 30 11 16 1013.6 1013.7 0.2
31/11:00am 9.0 3.3 -1.0 49 3.9 NW 19 26 10 14 1013.7 1013.8 0.0
31/10:30am 8.8 4.1 -1.7 47 4.0 NW 13 20 7 11 1014.1 1014.2 0.0
31/10:00am 8.9 2.9 -1.5 48 4.0 NNW 20 32 11 17 1013.8 1013.9 0.0
31/09:30am 7.8 2.3 -2.1 49 3.7 NNW 17 24 9 13 1013.6 1013.7 0.0
31/09:00am 7.3 1.9 -1.5 53 3.3 NNW 17 24 9 13 1013.8 1013.9 0.0
31/08:30am 5.9 -0.1 -2.7 54 3.1 NNW 19 24 10 13 1013.5 1013.6 0.0
31/08:00am 6.2 0.2 -3.0 52 3.3 NNW 19 24 10 13 1013.1 1013.1 0.0
31/07:30am 6.2 0.0 -3.4 50 3.4 NNW 20 26 11 14 1012.9 1012.9 0.0
31/07:00am 6.1 -1.2 -2.8 53 3.2 NW 26 32 14 17 1012.6 1012.6 0.0
31/06:30am 5.9 -0.6 -2.4 55 3.0 NW 22 28 12 15 1012.2 1012.2 0.0
31/06:00am 6.3 -0.7 -3.2 50 3.4 NW 24 33 13 18 1011.8 1011.8 0.0
31/05:30am 6.3 -0.6 -2.5 53 3.2 NW 24 35 13 19 1011.6 1011.6 0.0
31/05:00am 6.7 -0.3 -3.7 47 3.7 NW 24 37 13 20 1011.2 1011.2 0.0
31/04:30am 6.1 -0.1 -2.8 53 3.2 WNW 20 30 11 16 1011.0 1011.0 0.0
31/04:00am 6.4 -0.5 -2.7 52 3.3 WNW 24 32 13 17 1010.6 1010.6 0.0
31/03:30am 6.7 -0.6 -2.6 51 3.4 WNW 26 33 14 18 1010.2 1010.2 0.0
31/03:00am 6.8 -0.9 -2.8 50 3.5 WNW 28 37 15 20 1009.9 1009.9 0.0
31/02:30am 6.5 0.4 -2.2 54 3.2 WNW 20 30 11 16 1009.7 1009.7 0.0
31/02:00am 6.7 1.0 -0.6 59 2.8 NW 19 24 10 13 1009.3 1009.3 0.0
31/01:30am 6.5 0.7 -0.2 62 2.6 NW 20 30 11 16 1009.0 1009.0 0.0
31/01:00am 6.8 1.1 -1.1 57 3.0 WNW 19 28 10 15 1008.3 1008.3 0.0
31/12:30am 7.5 3.8 0.1 59 2.9 WNW 9 19 5 10 1007.7 1007.7 0.0
31/12:00am 7.6 1.5 -2.4 49 3.7 WSW 20 30 11 16 1007.1 1007.1 0.0
 
Date/Time
EST
Tmp

°C
App
Tmp
°C
Dew
Point
°C
Rel
Hum
%
Delta-T

°C
Wind Press
QNH
hPa
Press
MSL
hPa
Rain
since
9 am
mm
Dir
 
Spd
km/h
Gust
km/h
Spd
kts
Gust
kts
30/11:30pm 7.5 2.0 -1.8 51 3.5 W 17 28 9 15 1006.9 1006.9 0.0
30/11:00pm 7.8 1.4 -1.4 52 3.5 WSW 22 37 12 20 1006.2 1006.2 0.0
30/10:30pm 8.0 1.0 -0.8 54 3.4 WSW 26 37 14 20 1005.6 1005.6 0.0
30/10:00pm 8.7 0.1 -0.1 54 3.5 WSW 35 48 19 26 1004.8 1004.8 0.0
30/09:50pm 9.3 2.0 0.1 52 3.7 W 28 50 15 27 1004.7 1004.7 0.0
30/09:30pm 9.2 1.7 1.5 58 3.2 W 30 37 16 20 1004.1 1004.1 0.0
30/09:00pm 10.0 2.2 1.4 55 3.6 WNW 32 48 17 26 1003.2 1003.2 0.0
30/08:32pm 10.3 2.5 1.8 55 3.6 WNW 32 50 17 27 1002.2 1002.2 0.0
30/08:30pm 10.5 2.7 1.5 53 3.8 WNW 32 43 17 23 1002.2 1002.2 0.0
30/08:00pm 11.0 4.4 2.2 54 3.8 WNW 26 33 14 18 1001.3 1001.3 0.0
30/07:30pm 11.6 2.9 2.1 52 4.1 NW 37 59 20 32 1000.3 1000.3 0.0
30/07:00pm 11.8 3.9 1.2 48 4.5 NW 32 50 17 27 998.7 998.7 0.0
30/06:30pm 12.0 4.5 0.9 46 4.6 NNW 30 50 16 27 997.8 997.8 0.0
30/06:00pm 12.2 5.4 0.5 44 4.9 NNW 26 54 14 29 997.9 997.9 0.0
30/05:30pm 12.4 5.2 0.5 44 5.0 NNW 28 48 15 26 998.4 998.4 0.0
30/05:00pm 12.4 4.5 1.1 46 4.8 NNW 32 50 17 27 998.8 998.8 0.0
30/04:57pm 12.5 5.4 1.3 46 4.8 NNW 28 50 15 27 998.9 998.9 0.0
30/04:30pm 12.8 7.2 1.4 46 4.9 NNW 20 33 11 18 999.7 999.7 0.0
30/04:00pm 13.2 5.7 1.1 43 5.2 NNW 30 56 16 30 1000.0 1000.0 0.0
30/03:30pm 13.6 5.8 2.0 45 5.1 NNW 32 61 17 33 1000.5 1000.5 0.0
30/03:14pm 14.3 7.9 0.8 39 5.8 NNW 24 48 13 26 1000.8 1000.8 0.0
30/03:00pm 13.9 8.9 1.2 42 5.5 N 17 37 9 20 1001.1 1001.1 0.0
30/02:30pm 14.7 9.7 1.4 40 5.8 N 17 30 9 16 1001.9 1001.9 0.0
30/02:00pm 14.3 7.9 1.1 40 5.7 N 24 39 13 21 1002.5 1002.5 0.0
30/01:30pm 14.2 7.5 1.3 41 5.6 N 26 39 14 21 1003.3 1003.3 0.0
30/01:16pm 13.8 6.6 0.7 41 5.6 N 28 46 15 25 1003.6 1003.6 0.0
30/01:00pm 13.6 5.6 0.3 40 5.6 NNW 32 44 17 24 1003.9 1003.9 0.0
30/12:30pm 13.8 6.4 1.6 43 5.3 N 30 50 16 27 1004.6 1004.6 0.0
30/12:13pm 14.2 6.9 0.3 38 5.9 N 28 50 15 27 1005.6 1005.6 0.0

Latest Capital City Observations: Canberra | Sydney | Melbourne | Brisbane | Adelaide | Perth | Hobart | Darwin

Other Formats:

Comma delimited format used in spreadsheet applications
http://www.bom.gov.au/fwo/IDT60901/IDT60901.94975.axf

JavaScript Object Notation format (JSON) in row-major order
http://www.bom.gov.au/fwo/IDT60901/IDT60901.94975.json